createdAt,value
2017-08-24T00:01:01.786Z,97086.77
2017-08-24T00:03:29.852Z,97082.09
2017-08-24T00:05:57.426Z,97085.12
2017-08-24T00:08:25.097Z,97081.80
2017-08-24T00:10:52.737Z,97079.27
2017-08-24T00:13:20.353Z,97070.34
2017-08-24T00:15:47.976Z,97070.77
2017-08-24T00:18:15.585Z,97072.94
2017-08-24T00:20:44.071Z,97072.58
2017-08-24T00:23:12.071Z,97073.87
2017-08-24T00:25:39.707Z,97072.64
2017-08-24T00:28:09.958Z,97064.98
2017-08-24T00:30:37.610Z,97071.38
2017-08-24T00:33:05.227Z,97062.86
2017-08-24T00:35:32.846Z,97070.56
2017-08-24T00:38:00.439Z,97070.98
2017-08-24T00:40:28.443Z,97073.16
2017-08-24T00:42:56.071Z,97079.59
2017-08-24T00:45:23.656Z,97076.23
2017-08-24T00:47:51.264Z,97077.95
2017-08-24T00:50:19.470Z,97076.27
2017-08-24T00:52:47.047Z,97072.40
2017-08-24T00:55:14.664Z,97075.39
2017-08-24T00:57:42.266Z,97067.28
2017-08-24T01:00:09.900Z,97061.75
2017-08-24T01:02:37.511Z,97058.31
2017-08-24T01:05:05.117Z,97058.31
2017-08-24T01:07:34.153Z,97049.77
2017-08-24T01:10:01.850Z,97054.00
2017-08-24T01:12:29.469Z,97047.61
2017-08-24T01:14:57.046Z,97051.47
2017-08-24T01:17:24.778Z,97049.31
2017-08-24T01:19:52.354Z,97051.00
2017-08-24T01:22:19.941Z,97056.12
2017-08-24T01:24:47.841Z,97048.89
2017-08-24T01:27:15.434Z,97048.03
2017-08-24T01:29:43.003Z,97051.89
2017-08-24T01:32:11.154Z,97051.91
2017-08-24T01:34:38.779Z,97055.34
2017-08-24T01:37:06.378Z,97050.28
2017-08-24T01:39:33.975Z,97044.35
2017-08-24T01:42:01.553Z,97050.30
2017-08-24T01:44:29.227Z,97050.73
2017-08-24T01:46:56.816Z,97044.76
2017-08-24T01:49:24.411Z,97051.15
2017-08-24T01:51:52.021Z,97049.88
2017-08-24T01:54:19.617Z,97053.30
2017-08-24T01:56:47.225Z,97052.87
2017-08-24T01:59:14.842Z,97049.47
2017-08-24T02:01:42.516Z,97055.48
2017-08-24T02:04:10.131Z,97055.09
2017-08-24T02:06:37.733Z,97053.43
2017-08-24T02:09:05.362Z,97058.59
2017-08-24T02:11:33.247Z,97057.38
2017-08-24T02:14:00.943Z,97052.72
2017-08-24T02:16:28.543Z,97050.62
2017-08-24T02:18:56.250Z,97057.88
2017-08-24T02:21:23.842Z,97056.15
2017-08-24T02:23:51.436Z,97049.38
2017-08-24T02:26:19.052Z,97050.65
2017-08-24T02:28:47.032Z,97043.39
2017-08-24T02:31:14.625Z,97045.97
2017-08-24T02:33:42.201Z,97043.41
2017-08-24T02:36:09.816Z,97045.09
2017-08-24T02:38:37.399Z,97046.80
2017-08-24T02:41:05.116Z,97045.97
2017-08-24T02:43:32.728Z,97032.34
2017-08-24T02:46:00.407Z,97038.34
2017-08-24T02:48:28.030Z,97034.07
2017-08-24T02:50:55.611Z,97029.80
2017-08-24T02:53:23.234Z,97032.34
2017-08-24T02:55:51.047Z,97027.20
2017-08-24T02:58:18.678Z,97027.63
2017-08-24T03:00:46.316Z,97025.92
2017-08-24T03:03:13.941Z,97027.20
2017-08-24T03:05:41.546Z,97032.73
2017-08-24T03:08:09.186Z,97024.23
2017-08-24T03:13:19.023Z,97025.98
2017-08-24T03:15:46.629Z,97022.57
2017-08-24T03:18:14.519Z,97026.41
2017-08-24T03:20:42.113Z,97026.42
2017-08-24T03:23:09.822Z,97024.27
2017-08-24T03:25:37.479Z,97022.98
2017-08-24T03:28:05.104Z,97031.94
2017-08-24T03:30:32.706Z,97031.55
2017-08-24T03:33:00.700Z,97020.53
2017-08-24T03:35:28.304Z,97013.34
2017-08-24T03:37:55.954Z,97016.39
2017-08-24T03:40:23.659Z,97018.50
2017-08-24T03:42:51.272Z,97024.45
2017-08-24T03:45:18.895Z,97032.12
2017-08-24T03:50:23.593Z,97024.86
2017-08-24T03:52:51.191Z,97024.83
2017-08-24T03:55:19.095Z,97021.84
2017-08-24T03:57:46.673Z,97019.70
2017-08-24T04:00:14.281Z,97025.23
2017-08-24T04:02:42.268Z,97029.11
2017-08-24T04:05:09.884Z,97029.98
2017-08-24T04:07:37.458Z,97034.21
2017-08-24T04:10:05.064Z,97039.73
2017-08-24T04:12:32.668Z,97037.19
2017-08-24T04:15:00.278Z,97040.60
2017-08-24T04:17:27.877Z,97043.17
2017-08-24T04:19:55.502Z,97048.28
2017-08-24T04:22:23.095Z,97047.86
2017-08-24T04:24:51.049Z,97047.88
2017-08-24T04:27:18.638Z,97049.59
2017-08-24T04:29:46.215Z,97052.59
2017-08-24T04:32:13.836Z,97045.36
2017-08-24T04:34:41.411Z,97053.45
2017-08-24T04:37:09.032Z,97054.28
2017-08-24T04:39:36.627Z,97053.45
2017-08-24T04:42:04.236Z,97057.68
2017-08-24T04:44:31.833Z,97067.90
2017-08-24T04:46:59.434Z,97063.66
2017-08-24T04:49:27.018Z,97068.37
2017-08-24T04:51:55.030Z,97067.94
2017-08-24T04:54:22.640Z,97068.33
2017-08-24T04:56:50.275Z,97075.99
2017-08-24T04:59:18.255Z,97072.58
2017-08-24T05:01:45.875Z,97071.28
2017-08-24T05:04:13.487Z,97065.73
2017-08-24T05:06:41.134Z,97070.43
2017-08-24T05:09:08.765Z,97078.91
2017-08-24T05:11:36.408Z,97078.08
2017-08-24T05:14:04.013Z,97082.73
2017-08-24T05:16:31.911Z,97083.98
2017-08-24T05:18:59.547Z,97093.32
2017-08-24T05:21:27.149Z,97091.60
2017-08-24T05:23:54.902Z,97093.70
2017-08-24T05:26:23.147Z,97087.28
2017-08-24T05:28:50.759Z,97091.94
2017-08-24T05:31:18.358Z,97088.08
2017-08-24T05:33:45.971Z,97093.98
2017-08-24T05:36:13.587Z,97095.23
2017-08-24T05:38:41.345Z,97096.08
2017-08-24T05:41:09.068Z,97093.93
2017-08-24T05:43:37.048Z,97090.94
2017-08-24T05:46:04.653Z,97097.28
2017-08-24T05:48:32.285Z,97092.59
2017-08-24T05:50:59.907Z,97096.46
2017-08-24T05:53:27.507Z,97091.72
2017-08-24T05:55:55.158Z,97091.63
2017-08-24T05:58:22.817Z,97089.05
2017-08-24T06:00:50.432Z,97088.14
2017-08-24T06:03:18.024Z,97088.49
2017-08-24T06:05:45.630Z,97086.34
2017-08-24T06:08:13.228Z,97090.06
2017-08-24T06:10:40.825Z,97086.58
2017-08-24T06:13:09.913Z,97092.90
2017-08-24T06:15:37.873Z,97093.20
2017-08-24T06:18:05.487Z,97089.73
2017-08-24T06:20:33.112Z,97091.38
2017-08-24T06:23:00.706Z,97087.01
2017-08-24T06:25:28.301Z,97088.16
2017-08-24T06:27:55.950Z,97091.47
2017-08-24T06:30:23.543Z,97080.70
2017-08-24T06:32:51.522Z,97082.33
2017-08-24T06:35:19.139Z,97081.01
2017-08-24T06:37:46.840Z,97078.80
2017-08-24T06:40:14.499Z,97082.55
2017-08-24T06:42:43.630Z,97084.53
2017-08-24T06:45:11.237Z,97082.34
2017-08-24T06:47:38.831Z,97081.39
2017-08-24T06:50:06.466Z,97082.11
2017-08-24T06:52:34.073Z,97074.31
2017-08-24T06:55:01.708Z,97084.43
2017-08-24T06:57:29.368Z,97079.19
2017-08-24T06:59:57.337Z,97078.16
2017-08-24T07:02:24.943Z,97084.45
2017-08-24T07:04:52.554Z,97080.91
2017-08-24T07:07:20.175Z,97084.67
2017-08-24T07:09:47.782Z,97087.97
2017-08-24T07:12:15.431Z,97092.06
2017-08-24T07:14:43.161Z,97094.05
2017-08-24T07:17:10.814Z,97095.16
2017-08-24T07:19:38.421Z,97092.13
2017-08-24T07:22:06.026Z,97098.29
2017-08-24T07:24:33.680Z,97094.30
2017-08-24T07:27:01.656Z,97092.02
2017-08-24T07:29:29.261Z,97099.69
2017-08-24T07:31:56.879Z,97096.94
2017-08-24T07:34:24.516Z,97101.36
2017-08-24T07:36:52.243Z,97101.64
2017-08-24T07:39:19.887Z,97103.05
2017-08-24T07:41:49.441Z,97101.11
2017-08-24T07:44:17.202Z,97099.66
2017-08-24T07:46:44.999Z,97097.34
2017-08-24T07:49:12.644Z,97103.97
2017-08-24T07:51:40.237Z,97099.51
2017-08-24T07:54:07.874Z,97102.73
2017-08-24T07:56:35.467Z,97105.40
2017-08-24T07:59:03.485Z,97098.56
2017-08-24T08:01:31.106Z,97101.64
2017-08-24T08:03:58.718Z,97104.79
2017-08-24T08:06:26.352Z,97109.18
2017-08-24T08:08:53.945Z,97106.80
2017-08-24T08:11:21.574Z,97110.38
2017-08-24T08:13:49.191Z,97107.42
2017-08-24T08:16:16.800Z,97104.05
2017-08-24T08:18:44.415Z,97108.41
2017-08-24T08:21:12.002Z,97118.14
2017-08-24T08:23:39.591Z,97109.56
2017-08-24T08:26:07.464Z,97103.70
2017-08-24T08:28:35.083Z,97108.03
2017-08-24T08:31:03.138Z,97109.52
2017-08-24T08:35:57.599Z,97118.06
2017-08-24T08:38:25.243Z,97121.77
2017-08-24T08:40:52.961Z,97128.00
2017-08-24T08:43:20.589Z,97125.11
2017-08-24T08:45:48.158Z,97126.92
2017-08-24T08:48:15.770Z,97123.55
2017-08-24T08:50:43.328Z,97132.96
2017-08-24T08:53:11.227Z,97135.20
2017-08-24T08:55:38.846Z,97124.83
2017-08-24T08:58:06.432Z,97131.61
2017-08-24T09:00:34.047Z,97124.22
2017-08-24T09:03:01.718Z,97123.65
2017-08-24T09:05:29.390Z,97124.25
2017-08-24T09:07:56.957Z,97129.91
2017-08-24T09:10:24.597Z,97123.48
2017-08-24T09:12:52.174Z,97127.73
2017-08-24T09:15:20.118Z,97128.56
2017-08-24T09:17:47.713Z,97126.75
2017-08-24T09:20:15.440Z,97127.55
2017-08-24T09:22:43.045Z,97125.20
2017-08-24T09:25:10.966Z,97139.22
2017-08-24T09:27:38.581Z,97131.73
2017-08-24T09:30:06.204Z,97128.77
2017-08-24T09:32:33.817Z,97128.30
2017-08-24T09:35:01.413Z,97129.46
2017-08-24T09:37:29.022Z,97128.59
2017-08-24T09:39:56.615Z,97124.97
2017-08-24T09:42:24.201Z,97121.56
2017-08-24T09:44:51.788Z,97120.75
2017-08-24T09:47:19.406Z,97111.28
2017-08-24T09:49:46.983Z,97111.61
2017-08-24T09:52:14.857Z,97111.83
2017-08-24T09:54:42.455Z,97113.80
2017-08-24T09:57:10.677Z,97112.92
2017-08-24T09:59:38.290Z,97110.25
2017-08-24T10:02:05.876Z,97110.01
2017-08-24T10:04:33.507Z,97116.83
2017-08-24T10:07:01.099Z,97116.50
2017-08-24T10:09:28.688Z,97116.68
2017-08-24T10:11:56.300Z,97113.21
2017-08-24T10:14:23.915Z,97117.62
2017-08-24T10:16:51.496Z,97120.80
2017-08-24T10:19:19.152Z,97122.31
2017-08-24T10:21:46.756Z,97121.15
2017-08-24T10:24:14.762Z,97125.99
2017-08-24T10:26:42.354Z,97127.39
2017-08-24T10:29:10.009Z,97123.95
2017-08-24T10:31:37.659Z,97123.45
2017-08-24T10:34:05.279Z,97128.48
2017-08-24T10:36:32.892Z,97126.86
2017-08-24T10:39:00.975Z,97122.84
2017-08-24T10:41:28.592Z,97124.30
2017-08-24T10:43:56.192Z,97121.09
2017-08-24T10:46:23.887Z,97122.08
2017-08-24T10:48:51.501Z,97122.41
2017-08-24T10:53:52.947Z,97119.48
2017-08-24T10:56:20.880Z,97112.13
2017-08-24T10:58:48.468Z,97114.81
2017-08-24T11:01:16.114Z,97108.14
2017-08-24T11:03:43.737Z,97112.31
2017-08-24T11:06:11.336Z,97109.45
2017-08-24T11:08:39.088Z,97105.13
2017-08-24T11:11:06.770Z,97111.66
2017-08-24T11:13:34.371Z,97103.34
2017-08-24T11:16:01.973Z,97110.70
2017-08-24T11:18:29.614Z,97105.25
2017-08-24T11:20:57.226Z,97106.08
2017-08-24T11:23:24.831Z,97104.52
2017-08-24T11:25:52.441Z,97106.57
2017-08-24T11:28:20.450Z,97104.47
2017-08-24T11:30:48.036Z,97108.39
2017-08-24T11:33:15.629Z,97101.08
2017-08-24T11:35:43.258Z,97094.91
2017-08-24T11:38:10.854Z,97097.99
2017-08-24T11:40:38.473Z,97105.44
2017-08-24T11:43:06.104Z,97100.00
2017-08-24T11:45:33.816Z,97103.70
2017-08-24T11:48:01.414Z,97099.13
2017-08-24T11:50:29.040Z,97099.22
2017-08-24T11:52:56.623Z,97103.12
2017-08-24T11:55:24.226Z,97102.81
2017-08-24T11:57:51.802Z,97103.05
2017-08-24T12:00:19.744Z,97097.19
2017-08-24T12:02:47.361Z,97097.44
2017-08-24T12:05:14.951Z,97095.20
2017-08-24T12:07:42.626Z,97098.41
2017-08-24T12:10:10.322Z,97096.74
2017-08-24T12:12:37.929Z,97091.41
2017-08-24T12:15:05.567Z,97097.37
2017-08-24T12:17:33.203Z,97091.23
2017-08-24T12:20:00.808Z,97092.80
2017-08-24T12:22:28.417Z,97096.30
2017-08-24T12:24:56.026Z,97093.89
2017-08-24T12:27:24.025Z,97095.91
2017-08-24T12:29:51.630Z,97094.13
2017-08-24T12:32:19.273Z,97086.23
2017-08-24T12:34:46.921Z,97082.10
2017-08-24T12:37:14.531Z,97089.00
2017-08-24T12:39:42.172Z,97081.02
2017-08-24T12:42:09.784Z,97080.01
2017-08-24T12:44:37.412Z,97079.98
2017-08-24T12:47:04.997Z,97076.20
2017-08-24T12:49:32.786Z,97075.02
2017-08-24T12:52:00.410Z,97071.25
2017-08-24T12:54:28.177Z,97071.22
2017-08-24T12:56:55.813Z,97069.00
2017-08-24T12:59:23.712Z,97066.08
2017-08-24T13:01:51.403Z,97070.95
2017-08-24T13:04:18.998Z,97070.97
2017-08-24T13:06:46.625Z,97067.55
2017-08-24T13:09:14.227Z,97070.00
2017-08-24T13:11:41.965Z,97071.44
2017-08-24T13:14:09.571Z,97066.83
2017-08-24T13:16:37.189Z,97061.73
2017-08-24T13:19:04.820Z,97061.64
2017-08-24T13:21:32.471Z,97056.93
2017-08-24T13:24:00.084Z,97064.25
2017-08-24T13:26:28.056Z,97053.41
2017-08-24T13:28:55.648Z,97058.63
2017-08-24T13:31:23.250Z,97052.18
2017-08-24T13:33:50.869Z,97053.23
2017-08-24T13:36:18.461Z,97050.20
2017-08-24T13:38:46.075Z,97054.66
2017-08-24T13:41:13.666Z,97054.13
2017-08-24T13:43:41.306Z,97048.14
2017-08-24T13:46:09.040Z,97048.66
2017-08-24T13:48:36.872Z,97044.75
2017-08-24T13:51:11.207Z,97046.14
2017-08-24T13:53:39.153Z,97044.90
2017-08-24T13:56:06.765Z,97047.45
2017-08-24T13:58:34.501Z,97044.84
2017-08-24T14:01:02.183Z,97033.02
2017-08-24T14:03:29.909Z,97043.17
2017-08-24T14:05:57.674Z,97033.81
2017-08-24T14:08:32.145Z,97034.48
2017-08-24T14:10:59.764Z,97037.70
2017-08-24T14:13:27.359Z,97047.16
2017-08-24T14:15:56.294Z,97036.30
2017-08-24T14:18:23.919Z,97042.33
2017-08-24T14:20:51.539Z,97037.41
2017-08-24T14:23:19.182Z,97042.47
2017-08-24T14:25:46.757Z,97033.94
2017-08-24T14:28:14.373Z,97034.80
2017-08-24T14:30:41.961Z,97038.50
2017-08-24T14:33:09.565Z,97038.89
2017-08-24T14:35:37.155Z,97034.52
2017-08-24T14:38:04.770Z,97035.03
2017-08-24T14:40:32.386Z,97028.74
2017-08-24T14:43:00.329Z,97037.63
2017-08-24T14:45:27.961Z,97036.21
2017-08-24T14:47:55.558Z,97023.91
2017-08-24T14:50:23.197Z,97025.00
2017-08-24T14:52:50.902Z,97026.81
2017-08-24T14:55:18.539Z,97021.13
2017-08-24T14:57:46.204Z,97017.14
2017-08-24T15:00:13.877Z,97020.70
2017-08-24T15:02:41.482Z,97010.47
2017-08-24T15:05:09.140Z,97010.53
2017-08-24T15:07:36.722Z,97010.75
2017-08-24T15:10:04.348Z,97010.27
2017-08-24T15:12:31.929Z,97006.92
2017-08-24T15:14:59.981Z,97011.64
2017-08-24T15:17:27.559Z,97010.89
2017-08-24T15:19:55.165Z,97006.88
2017-08-24T15:22:22.791Z,97006.63
2017-08-24T15:24:50.391Z,97008.78
2017-08-24T15:27:17.995Z,97008.27
2017-08-24T15:29:45.583Z,97005.44
2017-08-24T15:32:13.193Z,97007.50
2017-08-24T15:34:40.790Z,97009.54
2017-08-24T15:37:08.569Z,97005.00
2017-08-24T15:39:36.181Z,97011.32
2017-08-24T15:42:03.790Z,97010.01
2017-08-24T15:44:31.402Z,97006.94
2017-08-24T15:46:59.313Z,97007.69
2017-08-24T15:49:26.916Z,97006.43
2017-08-24T15:51:54.521Z,97002.67
2017-08-24T15:54:22.114Z,97004.58
2017-08-24T15:56:49.707Z,97005.47
2017-08-24T15:59:17.340Z,97003.34
2017-08-24T16:01:44.911Z,97009.36
2017-08-24T16:04:12.570Z,97008.75
2017-08-24T16:06:40.245Z,97009.20
2017-08-24T16:09:07.887Z,97003.20
2017-08-24T16:11:35.488Z,97001.03
2017-08-24T16:14:03.606Z,97010.08
2017-08-24T16:16:31.198Z,97011.98
2017-08-24T16:18:58.804Z,97008.72
2017-08-24T16:21:26.547Z,97010.08
2017-08-24T16:23:54.126Z,97007.84
2017-08-24T16:26:21.767Z,97005.27
2017-08-24T16:28:49.340Z,97003.62
2017-08-24T16:31:17.083Z,97010.05
2017-08-24T16:33:44.695Z,97007.39
2017-08-24T16:36:12.333Z,97010.88
2017-08-24T16:38:39.952Z,97011.20
2017-08-24T16:41:07.874Z,97006.55
2017-08-24T16:43:35.498Z,97010.98
2017-08-24T16:46:03.126Z,97008.50
2017-08-24T16:48:30.748Z,97012.56
2017-08-24T16:50:58.363Z,97011.56
2017-08-24T16:53:26.034Z,97032.98
2017-08-24T16:55:53.634Z,97017.78
2017-08-24T16:58:21.294Z,97019.30
2017-08-24T17:00:48.900Z,97037.73
2017-08-24T17:03:16.787Z,97020.55
2017-08-24T17:05:44.428Z,97020.45
2017-08-24T17:08:12.052Z,97025.92
2017-08-24T17:10:39.691Z,97027.87
2017-08-24T17:13:07.300Z,97036.24
2017-08-24T17:15:35.044Z,97035.56
2017-08-24T17:18:02.731Z,97031.13
2017-08-24T17:20:30.370Z,97034.02
2017-08-24T17:22:58.006Z,97039.98
2017-08-24T17:25:25.676Z,97034.89
2017-08-24T17:27:53.283Z,97034.67
2017-08-24T17:30:21.276Z,97036.63
2017-08-24T17:32:48.887Z,97034.01
2017-08-24T17:35:16.495Z,97040.35
2017-08-24T17:37:44.138Z,97045.73
2017-08-24T17:40:11.901Z,97036.63
2017-08-24T17:42:39.530Z,97035.33
2017-08-24T17:45:07.218Z,97035.19
2017-08-24T17:47:34.882Z,97048.20
2017-08-24T17:50:02.607Z,97048.72
2017-08-24T17:52:30.225Z,97052.09
2017-08-24T17:54:58.548Z,97060.38
2017-08-24T17:57:26.206Z,97071.95
2017-08-24T17:59:53.789Z,97070.08
2017-08-24T18:02:21.757Z,97075.14
2017-08-24T18:04:49.375Z,97071.12
2017-08-24T18:07:17.000Z,97074.91
2017-08-24T18:09:44.647Z,97073.78
2017-08-24T18:12:12.295Z,97074.45
2017-08-24T18:14:40.007Z,97071.85
2017-08-24T18:17:07.781Z,97079.58
2017-08-24T18:19:35.535Z,97090.70
2017-08-24T18:22:03.133Z,97096.19
2017-08-24T18:24:30.767Z,97103.92
2017-08-24T18:26:58.355Z,97111.72
2017-08-24T18:29:25.995Z,97114.69
2017-08-24T18:31:53.920Z,97140.86
2017-08-24T18:34:21.547Z,97128.27
2017-08-24T18:36:49.208Z,97144.20
2017-08-24T18:39:16.936Z,97153.06
2017-08-24T18:41:44.555Z,97157.59
2017-08-24T18:44:12.187Z,97166.92
2017-08-24T18:46:39.782Z,97171.17
2017-08-24T18:49:07.514Z,97174.05
2017-08-24T18:51:35.136Z,97182.08
2017-08-24T18:54:03.218Z,97180.62
2017-08-24T18:56:30.849Z,97190.25
2017-08-24T18:58:58.545Z,97182.58
2017-08-24T19:01:26.482Z,97194.77
2017-08-24T19:03:54.081Z,97194.91
2017-08-24T19:06:21.708Z,97198.38
2017-08-24T19:08:49.343Z,97195.05
2017-08-24T19:11:16.966Z,97193.83
2017-08-24T19:13:44.763Z,97200.73
2017-08-24T19:16:12.393Z,97214.66
2017-08-24T19:18:40.007Z,97226.52
2017-08-24T19:21:07.603Z,97234.48
2017-08-24T19:23:35.557Z,97225.64
2017-08-24T19:26:03.246Z,97228.80
2017-08-24T19:28:30.870Z,97231.16
2017-08-24T19:30:58.515Z,97231.72
2017-08-24T19:33:26.144Z,97237.86
2017-08-24T19:35:53.790Z,97245.77
2017-08-24T19:38:21.419Z,97264.19
2017-08-24T19:40:49.362Z,97288.45
2017-08-24T19:43:16.975Z,97288.30
2017-08-24T19:45:44.600Z,97298.20
2017-08-24T19:48:12.372Z,97298.22
2017-08-24T19:50:40.009Z,97303.83
2017-08-24T19:53:07.722Z,97317.61
2017-08-24T19:55:35.347Z,97321.88
2017-08-24T19:58:02.978Z,97323.91
2017-08-24T20:00:31.143Z,97335.98
2017-08-24T20:02:59.063Z,97335.63
2017-08-24T20:05:26.667Z,97334.92
2017-08-24T20:07:55.561Z,97335.59
2017-08-24T20:10:23.202Z,97341.06
2017-08-24T20:12:50.834Z,97357.34
2017-08-24T20:15:18.474Z,97350.39
2017-08-24T20:17:46.199Z,97355.55
2017-08-24T20:20:13.903Z,97360.88
2017-08-24T20:22:41.490Z,97356.69
2017-08-24T20:25:09.128Z,97367.98
2017-08-24T20:27:36.732Z,97364.64
2017-08-24T20:30:04.682Z,97368.56
2017-08-24T20:32:32.263Z,97372.05
2017-08-24T20:35:00.025Z,97373.94
2017-08-24T20:37:27.675Z,97379.69
2017-08-24T20:39:55.267Z,97384.78
2017-08-24T20:42:22.879Z,97389.50
2017-08-24T20:44:50.507Z,97385.11
2017-08-24T20:47:18.424Z,97382.46
2017-08-24T20:49:46.005Z,97381.73
2017-08-24T20:52:13.567Z,97375.77
2017-08-24T20:54:41.196Z,97381.48
2017-08-24T20:57:08.800Z,97381.63
2017-08-24T20:59:36.746Z,97384.33
2017-08-24T21:02:04.361Z,97384.38
2017-08-24T21:04:32.135Z,97376.68
2017-08-24T21:06:59.740Z,97377.16
2017-08-24T21:09:27.378Z,97373.86
2017-08-24T21:11:55.087Z,97376.22
2017-08-24T21:14:22.689Z,97386.19
2017-08-24T21:16:50.734Z,97375.02
2017-08-24T21:19:18.403Z,97378.23
2017-08-24T21:21:45.979Z,97375.30
2017-08-24T21:24:13.612Z,97377.96
2017-08-24T21:26:41.317Z,97372.46
2017-08-24T21:29:09.340Z,97368.20
2017-08-24T21:31:36.945Z,97358.37
2017-08-24T21:34:04.556Z,97355.31
2017-08-24T21:36:32.180Z,97353.59
2017-08-24T21:38:59.802Z,97348.31
2017-08-24T21:41:27.437Z,97340.07
2017-08-24T21:43:55.049Z,97334.48
2017-08-24T21:46:22.695Z,97327.17
2017-08-24T21:48:50.301Z,97323.27
2017-08-24T21:51:18.285Z,97322.45
2017-08-24T21:53:46.109Z,97314.72
2017-08-24T21:56:13.715Z,97313.05
2017-08-24T21:58:41.341Z,97316.48
2017-08-24T22:01:08.967Z,97306.68
2017-08-24T22:03:36.595Z,97307.16
2017-08-24T22:06:04.208Z,97311.07
2017-08-24T22:08:31.819Z,97320.13
2017-08-24T22:10:59.422Z,97312.44
2017-08-24T22:13:27.413Z,97309.47
2017-08-24T22:15:55.023Z,97311.66
2017-08-24T22:18:22.624Z,97316.86
2017-08-24T22:20:50.231Z,97311.66
2017-08-24T22:23:17.813Z,97311.27
2017-08-24T22:25:45.415Z,97316.52
2017-08-24T22:28:13.003Z,97317.53
2017-08-24T22:30:40.956Z,97319.84
2017-08-24T22:33:08.548Z,97319.11
2017-08-24T22:35:36.153Z,97311.03
2017-08-24T22:38:03.978Z,97308.89
2017-08-24T22:40:31.571Z,97305.92
2017-08-24T22:42:59.187Z,97307.24
2017-08-24T22:45:26.834Z,97309.83
2017-08-24T22:47:54.807Z,97308.97
2017-08-24T22:50:22.383Z,97308.55
2017-08-24T22:52:50.010Z,97307.76
2017-08-24T22:55:23.204Z,97300.93
2017-08-24T22:57:56.476Z,97303.55
2017-08-24T23:00:29.596Z,97315.14
2017-08-24T23:03:02.729Z,97316.15
2017-08-24T23:05:30.496Z,97327.07
2017-08-24T23:07:58.191Z,97341.81
2017-08-24T23:10:25.763Z,97336.73
2017-08-24T23:12:53.347Z,97347.97
2017-08-24T23:15:20.947Z,97342.45
2017-08-24T23:17:48.532Z,97348.50
2017-08-24T23:20:16.145Z,97345.92
2017-08-24T23:22:43.752Z,97350.68
2017-08-24T23:25:11.380Z,97346.53
2017-08-24T23:27:38.969Z,97342.02
2017-08-24T23:30:06.580Z,97343.84
2017-08-24T23:32:34.198Z,97342.95
2017-08-24T23:35:01.798Z,97333.51
2017-08-24T23:37:29.432Z,97336.68
2017-08-24T23:39:57.023Z,97335.42
2017-08-24T23:42:24.656Z,97336.81
2017-08-24T23:44:52.258Z,97330.02
2017-08-24T23:47:19.880Z,97329.98
2017-08-24T23:49:47.529Z,97327.77
2017-08-24T23:52:15.157Z,97319.16
2017-08-24T23:54:42.762Z,97318.23
2017-08-24T23:57:10.410Z,97310.95
2017-08-24T23:59:37.988Z,97305.08
